createdAt,value
2019-04-18T00:00:28.853Z,8.60
2019-04-18T00:01:26.137Z,8.30
2019-04-18T00:02:26.123Z,7.90
2019-04-18T00:03:26.100Z,8.00
2019-04-18T00:04:26.078Z,8.00
2019-04-18T00:05:26.057Z,7.90
2019-04-18T00:06:26.037Z,8.50
2019-04-18T00:07:26.067Z,8.60
2019-04-18T00:08:26.000Z,7.70
2019-04-18T00:09:25.984Z,8.60
2019-04-18T00:10:25.958Z,8.00
2019-04-18T00:11:25.939Z,7.50
2019-04-18T00:12:25.920Z,8.00
2019-04-18T00:13:28.559Z,8.80
2019-04-18T00:14:41.821Z,8.00
2019-04-18T00:15:38.305Z,8.50
2019-04-18T00:16:25.857Z,8.50
2019-04-18T00:17:27.786Z,8.50
2019-04-18T00:18:25.804Z,8.30
2019-04-18T00:19:25.782Z,7.60
2019-04-18T00:20:25.761Z,8.20
2019-04-18T00:21:25.744Z,7.90
2019-04-18T00:22:25.725Z,8.40
2019-04-18T00:23:25.927Z,7.90
2019-04-18T00:24:25.694Z,8.20
2019-04-18T00:25:25.666Z,8.50
2019-04-18T00:26:25.646Z,8.30
2019-04-18T00:27:25.638Z,8.00
2019-04-18T00:28:25.607Z,8.40
2019-04-18T00:29:26.933Z,8.50
2019-04-18T00:30:25.570Z,8.50
2019-04-18T00:31:25.563Z,8.20
2019-04-18T00:32:25.530Z,8.60
2019-04-18T00:33:25.511Z,8.30
2019-04-18T00:34:25.509Z,8.30
2019-04-18T00:35:25.470Z,8.20
2019-04-18T00:36:25.450Z,8.40
2019-04-18T00:37:25.439Z,8.20
2019-04-18T00:38:26.871Z,8.30
2019-04-18T00:39:25.420Z,8.50
2019-04-18T00:40:25.384Z,8.40
2019-04-18T00:41:25.355Z,8.90
2019-04-18T00:42:25.341Z,8.90
2019-04-18T00:43:27.665Z,8.80
2019-04-18T00:44:25.296Z,8.80
2019-04-18T00:45:25.272Z,7.90
2019-04-18T00:46:25.255Z,8.80
2019-04-18T00:47:25.234Z,8.70
2019-04-18T00:48:25.670Z,8.40
2019-04-18T00:49:25.195Z,8.60
2019-04-18T00:50:25.175Z,8.60
2019-04-18T00:51:25.155Z,9.30
2019-04-18T00:52:25.135Z,8.50
2019-04-18T00:53:25.120Z,8.50
2019-04-18T00:54:26.291Z,8.50
2019-04-18T00:55:25.079Z,8.70
2019-04-18T00:56:25.060Z,8.90
2019-04-18T00:57:25.037Z,9.60
2019-04-18T00:58:25.022Z,8.90
2019-04-18T00:59:25.002Z,9.00
2019-04-18T01:00:24.979Z,8.90
2019-04-18T01:01:24.962Z,9.20
2019-04-18T01:02:24.944Z,9.70
2019-04-18T01:03:25.740Z,9.10
2019-04-18T01:04:26.901Z,8.60
2019-04-18T01:05:24.883Z,9.30
2019-04-18T01:06:24.863Z,8.40
2019-04-18T01:07:24.841Z,8.80
2019-04-18T01:08:24.822Z,9.00
2019-04-18T01:09:24.805Z,8.40
2019-04-18T01:10:24.783Z,9.20
2019-04-18T01:11:24.770Z,9.50
2019-04-18T01:12:24.745Z,9.10
2019-04-18T01:13:24.727Z,8.70
2019-04-18T01:14:24.709Z,8.70
2019-04-18T01:15:24.688Z,9.40
2019-04-18T01:16:25.225Z,8.70
2019-04-18T01:17:24.653Z,8.60
2019-04-18T01:18:24.642Z,9.00
2019-04-18T01:19:24.605Z,8.40
2019-04-18T01:20:28.496Z,9.00
2019-04-18T01:21:24.572Z,9.20
2019-04-18T01:22:24.546Z,8.80
2019-04-18T01:23:24.525Z,9.30
2019-04-18T01:24:27.491Z,9.40
2019-04-18T01:25:24.490Z,8.80
2019-04-18T01:26:24.472Z,8.80
2019-04-18T01:27:24.467Z,8.80
2019-04-18T01:28:24.428Z,8.60
2019-04-18T01:29:24.409Z,9.20
2019-04-18T01:30:24.392Z,10.20
2019-04-18T01:31:24.372Z,9.10
2019-04-18T01:32:24.351Z,9.00
2019-04-18T01:33:24.332Z,8.50
2019-04-18T01:34:24.313Z,9.70
2019-04-18T01:35:24.357Z,9.60
2019-04-18T01:36:24.941Z,9.90
2019-04-18T01:37:24.296Z,9.40
2019-04-18T01:38:24.241Z,9.30
2019-04-18T01:39:24.213Z,9.20
2019-04-18T01:40:24.192Z,9.00
2019-04-18T01:41:24.549Z,8.70
2019-04-18T01:42:26.156Z,9.40
2019-04-18T01:43:24.133Z,8.90
2019-04-18T01:44:24.146Z,9.60
2019-04-18T01:45:24.096Z,8.90
2019-04-18T01:46:24.294Z,9.00
2019-04-18T01:47:24.936Z,9.20
2019-04-18T01:48:24.035Z,9.90
2019-04-18T01:49:24.017Z,9.70
2019-04-18T01:50:23.998Z,9.30
2019-04-18T01:51:23.984Z,9.70
2019-04-18T01:52:26.846Z,9.70
2019-04-18T01:53:24.875Z,9.90
2019-04-18T01:54:23.917Z,9.40
2019-04-18T01:55:23.897Z,8.80
2019-04-18T01:56:24.758Z,9.00
2019-04-18T01:57:27.471Z,9.60
2019-04-18T01:58:23.838Z,9.00
2019-04-18T01:59:23.827Z,10.40
2019-04-18T02:00:23.798Z,9.90
2019-04-18T02:01:23.778Z,9.50
2019-04-18T02:02:26.756Z,9.60
2019-04-18T02:03:23.738Z,10.50
2019-04-18T02:04:23.720Z,9.40
2019-04-18T02:05:23.790Z,9.90
2019-04-18T02:06:23.678Z,10.20
2019-04-18T02:07:23.658Z,9.00
2019-04-18T02:08:23.639Z,8.70
2019-04-18T02:09:24.240Z,9.70
2019-04-18T02:10:26.782Z,9.70
2019-04-18T02:11:23.584Z,9.40
2019-04-18T02:12:23.560Z,10.10
2019-04-18T02:13:23.541Z,10.10
2019-04-18T02:14:25.730Z,9.90
2019-04-18T02:15:23.503Z,8.70
2019-04-18T02:16:23.480Z,9.70
2019-04-18T02:17:23.461Z,10.20
2019-04-18T02:18:23.441Z,9.70
2019-04-18T02:19:24.053Z,9.50
2019-04-18T02:20:23.402Z,10.20
2019-04-18T02:21:23.383Z,9.40
2019-04-18T02:22:23.364Z,10.30
2019-04-18T02:23:23.341Z,10.60
2019-04-18T02:24:25.848Z,9.90
2019-04-18T02:25:23.306Z,9.90
2019-04-18T02:26:23.285Z,10.20
2019-04-18T02:27:26.580Z,9.70
2019-04-18T02:28:23.250Z,9.80
2019-04-18T02:29:23.227Z,9.40
2019-04-18T02:30:23.203Z,9.40
2019-04-18T02:31:23.184Z,9.20
2019-04-18T02:32:23.164Z,9.20
2019-04-18T02:33:23.143Z,9.50
2019-04-18T02:34:23.129Z,9.30
2019-04-18T02:35:29.096Z,10.00
2019-04-18T02:36:23.092Z,10.40
2019-04-18T02:37:23.063Z,10.10
2019-04-18T02:38:23.080Z,9.50
2019-04-18T02:39:27.956Z,10.10
2019-04-18T02:40:23.004Z,9.70
2019-04-18T02:41:22.992Z,9.40
2019-04-18T02:42:22.965Z,9.40
2019-04-18T02:43:22.950Z,10.00
2019-04-18T02:44:26.934Z,9.30
2019-04-18T02:45:22.905Z,9.80
2019-04-18T02:46:22.892Z,10.10
2019-04-18T02:47:22.867Z,10.20
2019-04-18T02:48:25.634Z,9.50
2019-04-18T02:49:22.829Z,9.80
2019-04-18T02:50:22.805Z,9.90
2019-04-18T02:51:22.791Z,9.90
2019-04-18T02:52:24.712Z,9.90
2019-04-18T02:53:22.753Z,10.30
2019-04-18T02:54:22.726Z,9.40
2019-04-18T02:55:22.707Z,8.90
2019-04-18T02:56:24.259Z,9.90
2019-04-18T02:57:22.666Z,9.50
2019-04-18T02:58:22.646Z,10.40
2019-04-18T02:59:22.632Z,10.20
2019-04-18T03:00:22.923Z,9.90
2019-04-18T03:01:24.853Z,10.10
2019-04-18T03:02:22.569Z,10.40
2019-04-18T03:03:22.547Z,9.80
2019-04-18T03:04:22.529Z,9.10
2019-04-18T03:05:32.576Z,10.50
2019-04-18T03:06:22.490Z,10.00
2019-04-18T03:07:23.321Z,10.00
2019-04-18T03:08:25.005Z,9.50
2019-04-18T03:09:22.427Z,10.10
2019-04-18T03:10:22.409Z,10.10
2019-04-18T03:11:22.388Z,10.20
2019-04-18T03:12:24.960Z,10.30
2019-04-18T03:13:22.347Z,10.50
2019-04-18T03:14:22.328Z,10.60
2019-04-18T03:15:22.316Z,9.70
2019-04-18T03:16:24.439Z,9.10
2019-04-18T03:17:22.275Z,10.10
2019-04-18T03:18:22.255Z,9.50
2019-04-18T03:19:22.230Z,9.80
2019-04-18T03:20:22.214Z,10.00
2019-04-18T03:21:25.575Z,9.90
2019-04-18T03:22:22.167Z,10.30
2019-04-18T03:23:22.146Z,10.70
2019-04-18T03:24:22.125Z,10.70
2019-04-18T03:25:22.737Z,10.40
2019-04-18T03:26:23.812Z,9.90
2019-04-18T03:27:22.066Z,10.00
2019-04-18T03:28:22.044Z,10.40
2019-04-18T03:29:22.025Z,11.20
2019-04-18T03:30:28.851Z,10.50
2019-04-18T03:31:25.344Z,10.80
2019-04-18T03:32:21.967Z,10.10
2019-04-18T03:33:23.733Z,10.00
2019-04-18T03:34:21.928Z,10.40
2019-04-18T03:35:21.906Z,10.20
2019-04-18T03:36:21.884Z,10.60
2019-04-18T03:37:21.865Z,10.50
2019-04-18T03:38:21.845Z,10.80
2019-04-18T03:39:21.823Z,10.60
2019-04-18T03:40:24.759Z,10.70
2019-04-18T03:41:21.785Z,10.30
2019-04-18T03:42:21.767Z,11.00
2019-04-18T03:43:21.743Z,10.60
2019-04-18T03:44:21.723Z,11.20
2019-04-18T03:45:22.530Z,10.00
2019-04-18T03:46:25.580Z,10.40
2019-04-18T03:47:21.660Z,10.40
2019-04-18T03:48:21.645Z,10.40
2019-04-18T03:49:21.623Z,10.90
2019-04-18T03:50:21.608Z,10.60
2019-04-18T03:51:23.639Z,11.00
2019-04-18T03:52:21.689Z,10.20
2019-04-18T03:53:21.547Z,11.20
2019-04-18T03:54:21.521Z,10.90
2019-04-18T03:55:22.824Z,10.90
2019-04-18T03:56:21.478Z,10.50
2019-04-18T03:57:21.460Z,10.50
2019-04-18T03:58:21.443Z,11.70
2019-04-18T03:59:21.419Z,10.30
2019-04-18T04:00:25.294Z,10.60
2019-04-18T04:01:21.380Z,9.90
2019-04-18T04:02:21.365Z,10.20
2019-04-18T04:03:21.353Z,10.80
2019-04-18T04:04:22.513Z,11.20
2019-04-18T04:05:24.012Z,10.90
2019-04-18T04:06:21.281Z,10.50
2019-04-18T04:07:21.897Z,11.10
2019-04-18T04:08:21.237Z,11.00
2019-04-18T04:09:21.219Z,11.40
2019-04-18T04:10:21.197Z,10.50
2019-04-18T04:11:22.372Z,10.90
2019-04-18T04:12:23.899Z,11.00
2019-04-18T04:13:21.138Z,10.80
2019-04-18T04:14:21.121Z,10.90
2019-04-18T04:15:21.097Z,10.90
2019-04-18T04:16:23.220Z,10.30
2019-04-18T04:17:21.056Z,10.80
2019-04-18T04:18:21.037Z,10.50
2019-04-18T04:19:22.181Z,9.90
2019-04-18T04:20:23.103Z,10.40
2019-04-18T04:21:20.972Z,10.50
2019-04-18T04:22:20.955Z,11.10
2019-04-18T04:23:20.935Z,10.50
2019-04-18T04:24:20.918Z,10.70
2019-04-18T04:25:20.894Z,9.90
2019-04-18T04:26:20.872Z,10.80
2019-04-18T04:27:22.201Z,10.90
2019-04-18T04:28:23.912Z,10.90
2019-04-18T04:29:20.812Z,9.50
2019-04-18T04:30:20.791Z,9.90
2019-04-18T04:31:23.100Z,11.20
2019-04-18T04:32:20.752Z,10.20
2019-04-18T04:33:20.730Z,10.60
2019-04-18T04:34:20.714Z,10.00
2019-04-18T04:35:20.689Z,10.00
2019-04-18T04:36:26.114Z,9.60
2019-04-18T04:37:20.650Z,10.30
2019-04-18T04:38:20.875Z,10.60
2019-04-18T04:39:23.897Z,10.50
2019-04-18T04:40:20.590Z,9.70
2019-04-18T04:41:20.577Z,10.40
2019-04-18T04:42:20.791Z,10.00
2019-04-18T04:43:21.642Z,9.50
2019-04-18T04:44:20.508Z,9.50
2019-04-18T04:45:20.488Z,9.70
2019-04-18T04:46:20.468Z,10.60
2019-04-18T04:47:20.446Z,10.20
2019-04-18T04:48:23.467Z,10.30
2019-04-18T04:49:20.407Z,9.80
2019-04-18T04:50:20.387Z,10.50
2019-04-18T04:51:20.373Z,10.70
2019-04-18T04:52:22.815Z,10.30
2019-04-18T04:53:20.337Z,10.90
2019-04-18T04:54:20.306Z,10.50
2019-04-18T04:55:20.283Z,10.50
2019-04-18T04:56:20.272Z,10.70
2019-04-18T04:57:21.006Z,10.50
2019-04-18T04:58:20.225Z,10.60
2019-04-18T04:59:20.204Z,10.60
2019-04-18T05:00:23.784Z,10.50
2019-04-18T05:01:20.165Z,10.90
2019-04-18T05:02:20.144Z,9.90
2019-04-18T05:03:20.122Z,9.80
2019-04-18T05:04:21.277Z,10.30
2019-04-18T05:05:20.084Z,9.70
2019-04-18T05:06:35.244Z,10.10
2019-04-18T05:07:20.666Z,10.70
2019-04-18T05:08:20.022Z,10.90
2019-04-18T05:09:20.002Z,11.30
2019-04-18T05:10:19.981Z,10.90
2019-04-18T05:11:21.678Z,10.80
2019-04-18T05:12:19.940Z,11.00
2019-04-18T05:13:19.924Z,10.30
2019-04-18T05:14:19.902Z,10.80
2019-04-18T05:15:19.884Z,10.30
2019-04-18T05:16:19.865Z,10.90
2019-04-18T05:17:19.841Z,10.50
2019-04-18T05:18:19.825Z,10.10
2019-04-18T05:19:19.799Z,11.20
2019-04-18T05:20:19.778Z,10.20
2019-04-18T05:21:19.773Z,10.90
2019-04-18T05:22:19.736Z,10.60
2019-04-18T05:23:19.715Z,10.60
2019-04-18T05:24:24.682Z,10.90
2019-04-18T05:25:19.675Z,10.70
2019-04-18T05:26:19.664Z,10.50
2019-04-18T05:27:19.635Z,10.30
2019-04-18T05:28:19.615Z,10.60
2019-04-18T05:29:19.594Z,10.80
2019-04-18T05:30:19.576Z,10.10
2019-04-18T05:31:21.710Z,10.10
2019-04-18T05:32:19.534Z,10.50
2019-04-18T05:33:19.517Z,10.60
2019-04-18T05:34:19.494Z,10.70
2019-04-18T05:35:22.857Z,10.80
2019-04-18T05:36:22.676Z,10.60
2019-04-18T05:37:19.434Z,11.10
2019-04-18T05:38:22.473Z,10.70
2019-04-18T05:39:19.391Z,10.80
2019-04-18T05:40:19.371Z,10.80
2019-04-18T05:41:22.747Z,10.00
2019-04-18T05:42:22.928Z,10.40
2019-04-18T05:43:19.316Z,9.90
2019-04-18T05:44:19.304Z,10.40
2019-04-18T05:45:19.269Z,11.00
2019-04-18T05:46:21.727Z,11.40
2019-04-18T05:47:19.227Z,11.00
2019-04-18T05:48:19.210Z,11.40
2019-04-18T05:49:19.199Z,10.30
2019-04-18T05:50:19.168Z,10.90
2019-04-18T05:51:21.538Z,10.80
2019-04-18T05:52:19.127Z,10.70
2019-04-18T05:53:19.111Z,10.80
2019-04-18T05:54:19.101Z,10.90
2019-04-18T05:55:21.767Z,11.40
2019-04-18T05:56:19.045Z,10.90
2019-04-18T05:57:19.029Z,10.80
2019-04-18T05:58:19.007Z,11.50
2019-04-18T05:59:22.151Z,11.10
2019-04-18T06:00:18.965Z,11.00
2019-04-18T06:01:18.946Z,11.50
2019-04-18T06:02:23.417Z,10.50
2019-04-18T06:03:18.903Z,10.90
2019-04-18T06:04:18.894Z,11.80
2019-04-18T06:05:18.866Z,11.10
2019-04-18T06:06:18.843Z,10.30
2019-04-18T06:07:25.106Z,11.20
2019-04-18T06:08:19.411Z,10.80
2019-04-18T06:09:18.783Z,10.90
2019-04-18T06:10:19.460Z,11.20
2019-04-18T06:11:23.780Z,11.00
2019-04-18T06:12:18.952Z,11.40
2019-04-18T06:13:18.702Z,11.10
2019-04-18T06:14:18.683Z,11.40
2019-04-18T06:15:21.809Z,12.00
2019-04-18T06:16:18.641Z,11.40
2019-04-18T06:17:18.682Z,11.80
2019-04-18T06:18:19.005Z,11.20
2019-04-18T06:19:22.592Z,10.90
2019-04-18T06:20:18.563Z,11.40
2019-04-18T06:21:18.769Z,12.60
2019-04-18T06:22:19.337Z,12.10
2019-04-18T06:23:18.505Z,11.30
2019-04-18T06:24:18.577Z,10.90
2019-04-18T06:25:21.124Z,11.60
2019-04-18T06:26:18.444Z,11.30
2019-04-18T06:27:20.839Z,11.10
2019-04-18T06:28:19.202Z,11.10
2019-04-18T06:29:18.391Z,10.90
2019-04-18T06:30:18.367Z,10.70
2019-04-18T06:31:18.446Z,11.80
2019-04-18T06:32:18.318Z,11.70
2019-04-18T06:33:22.458Z,11.30
2019-04-18T06:34:18.292Z,11.30
2019-04-18T06:35:18.643Z,11.40
2019-04-18T06:36:22.171Z,12.30
2019-04-18T06:37:29.413Z,11.60
2019-04-18T06:38:19.901Z,12.10
2019-04-18T06:39:20.893Z,11.50
2019-04-18T06:40:18.662Z,11.30
2019-04-18T06:41:18.562Z,12.60
2019-04-18T06:42:18.903Z,12.10
2019-04-18T06:43:19.488Z,11.60
2019-04-18T06:44:18.076Z,11.60
2019-04-18T06:45:18.056Z,10.90
2019-04-18T06:46:22.611Z,11.30
2019-04-18T06:47:18.018Z,12.40
2019-04-18T06:48:18.001Z,11.20
2019-04-18T06:49:18.014Z,11.50
2019-04-18T06:50:23.431Z,12.10
2019-04-18T06:51:17.933Z,12.20
2019-04-18T06:52:17.914Z,10.80
2019-04-18T06:53:21.896Z,12.50
2019-04-18T06:54:17.874Z,11.70
2019-04-18T06:55:17.863Z,12.00
2019-04-18T06:56:18.781Z,11.30
2019-04-18T06:57:19.350Z,11.90
2019-04-18T06:58:32.570Z,10.90
2019-04-18T06:59:22.035Z,11.60
2019-04-18T07:00:17.756Z,11.40
2019-04-18T07:01:18.247Z,11.80
2019-04-18T07:02:17.720Z,12.00
2019-04-18T07:03:20.873Z,11.40
2019-04-18T07:04:17.843Z,11.90
2019-04-18T07:05:17.754Z,11.80
2019-04-18T07:06:30.818Z,11.10
2019-04-18T07:07:20.515Z,11.80
2019-04-18T07:08:17.611Z,11.00
2019-04-18T07:09:17.579Z,11.40
2019-04-18T07:10:17.564Z,11.90
2019-04-18T07:11:17.541Z,11.20
2019-04-18T07:12:17.542Z,12.90
2019-04-18T07:13:21.277Z,12.10
2019-04-18T07:14:17.494Z,12.10
2019-04-18T07:15:17.456Z,11.80
2019-04-18T07:16:17.678Z,11.90
2019-04-18T07:17:20.129Z,11.40
2019-04-18T07:18:17.770Z,11.40
2019-04-18T07:19:17.511Z,11.80
2019-04-18T07:20:20.030Z,12.20
2019-04-18T07:21:17.389Z,12.10
2019-04-18T07:22:17.330Z,12.30
2019-04-18T07:23:17.333Z,12.80
2019-04-18T07:24:17.380Z,11.90
2019-04-18T07:25:17.748Z,11.40
2019-04-18T07:26:17.352Z,11.30
2019-04-18T07:27:17.221Z,10.90
2019-04-18T07:28:20.339Z,12.00
2019-04-18T07:29:17.179Z,12.90
2019-04-18T07:30:17.162Z,11.30
2019-04-18T07:31:24.122Z,11.60
2019-04-18T07:32:17.226Z,11.60
2019-04-18T07:33:17.333Z,12.30
2019-04-18T07:34:17.086Z,11.20
2019-04-18T07:35:17.279Z,11.90
2019-04-18T07:36:17.047Z,11.80
2019-04-18T07:37:19.642Z,11.40
2019-04-18T07:38:17.006Z,12.50
2019-04-18T07:39:19.897Z,11.70
2019-04-18T07:40:16.979Z,12.30
2019-04-18T07:41:19.097Z,11.50
2019-04-18T07:42:16.937Z,11.70
2019-04-18T07:43:16.913Z,11.50
2019-04-18T07:44:16.898Z,11.70
2019-04-18T07:45:16.875Z,10.90
2019-04-18T07:46:16.864Z,10.90
2019-04-18T07:47:16.834Z,12.40
2019-04-18T07:48:17.136Z,11.20
2019-04-18T07:49:16.803Z,11.80
2019-04-18T07:50:16.773Z,11.70
2019-04-18T07:51:16.754Z,11.90
2019-04-18T07:52:16.737Z,11.30
2019-04-18T07:53:21.409Z,12.50
2019-04-18T07:54:16.703Z,11.70
2019-04-18T07:55:16.682Z,11.60
2019-04-18T07:56:16.666Z,12.10
2019-04-18T07:57:23.072Z,11.80
2019-04-18T07:58:16.631Z,11.10
2019-04-18T07:59:18.727Z,11.30
2019-04-18T08:00:16.596Z,11.90
2019-04-18T08:01:16.575Z,11.60
2019-04-18T08:02:16.546Z,10.60
2019-04-18T08:03:16.547Z,11.00
2019-04-18T08:04:17.007Z,11.90
2019-04-18T08:05:16.494Z,11.20
2019-04-18T08:06:22.079Z,11.90
2019-04-18T08:07:16.906Z,12.40
2019-04-18T08:08:16.433Z,10.90
2019-04-18T08:09:16.764Z,10.60
2019-04-18T08:10:23.434Z,12.00
2019-04-18T08:11:16.396Z,11.40
2019-04-18T08:12:16.361Z,10.50
2019-04-18T08:13:16.347Z,10.80
2019-04-18T08:14:16.326Z,11.10
2019-04-18T08:15:16.305Z,10.30
2019-04-18T08:16:16.292Z,10.90
2019-04-18T08:17:17.339Z,11.40
2019-04-18T08:18:16.493Z,11.10
2019-04-18T08:19:16.253Z,11.30
2019-04-18T08:20:16.222Z,10.40
2019-04-18T08:21:16.651Z,11.10
2019-04-18T08:22:16.174Z,11.50
2019-04-18T08:23:24.684Z,10.60
2019-04-18T08:24:16.137Z,11.20
2019-04-18T08:25:18.795Z,11.20
2019-04-18T08:26:19.702Z,10.60
2019-04-18T08:27:16.087Z,11.10
2019-04-18T08:28:17.300Z,10.80
2019-04-18T08:29:25.839Z,10.90
2019-04-18T08:30:16.029Z,10.60
2019-04-18T08:31:16.014Z,10.80
2019-04-18T08:32:16.739Z,10.10
2019-04-18T08:33:16.370Z,10.40
2019-04-18T08:34:18.710Z,10.70
2019-04-18T08:35:15.937Z,11.20
2019-04-18T08:36:16.095Z,10.80
2019-04-18T08:37:20.906Z,10.90
2019-04-18T08:38:15.892Z,11.50
2019-04-18T08:39:15.865Z,11.70
2019-04-18T08:40:15.858Z,10.60
2019-04-18T08:41:15.837Z,10.80
2019-04-18T08:42:15.810Z,10.60
2019-04-18T08:43:15.934Z,11.00
2019-04-18T08:44:19.975Z,10.70
2019-04-18T08:45:15.756Z,10.70
2019-04-18T08:46:15.746Z,10.30
2019-04-18T08:47:17.725Z,11.50
2019-04-18T08:48:19.000Z,10.90
2019-04-18T08:49:15.684Z,10.90
2019-04-18T08:50:16.200Z,10.70
2019-04-18T08:51:15.653Z,10.40
2019-04-18T08:52:15.648Z,10.80
2019-04-18T08:53:15.631Z,11.20
2019-04-18T08:54:16.227Z,11.20
2019-04-18T08:55:21.288Z,11.30
2019-04-18T08:56:15.580Z,11.00
2019-04-18T08:57:15.550Z,10.60
2019-04-18T08:58:15.533Z,10.50
2019-04-18T08:59:15.531Z,10.20
2019-04-18T09:00:15.489Z,10.70
2019-04-18T09:01:18.445Z,10.90
2019-04-18T09:02:15.743Z,9.70
2019-04-18T09:03:26.665Z,11.40
2019-04-18T09:04:15.419Z,10.20
2019-04-18T09:05:22.085Z,10.00
2019-04-18T09:06:30.453Z,10.20
2019-04-18T09:07:16.029Z,10.30
2019-04-18T09:08:17.243Z,10.00
2019-04-18T09:09:16.591Z,9.90
2019-04-18T09:10:16.076Z,10.30
2019-04-18T09:11:22.195Z,10.10
2019-04-18T09:12:15.758Z,10.70
2019-04-18T09:13:20.984Z,10.00
2019-04-18T09:14:17.263Z,10.00
2019-04-18T09:15:15.431Z,9.20
2019-04-18T09:16:15.690Z,9.40
2019-04-18T09:17:15.559Z,9.60
2019-04-18T09:18:21.501Z,9.60
2019-04-18T09:19:17.215Z,9.80
2019-04-18T09:20:16.735Z,9.20
2019-04-18T09:21:22.925Z,8.10
2019-04-18T09:22:15.898Z,8.10
2019-04-18T09:23:15.107Z,8.50
2019-04-18T09:24:20.269Z,8.70
2019-04-18T09:25:15.459Z,8.70
2019-04-18T09:26:15.595Z,9.00
2019-04-18T09:27:20.017Z,8.30
2019-04-18T09:28:15.523Z,9.50
2019-04-18T09:29:14.991Z,9.10
2019-04-18T09:30:19.419Z,9.20
2019-04-18T09:31:15.158Z,8.50
2019-04-18T09:32:14.948Z,8.80
2019-04-18T09:33:14.917Z,8.70
2019-04-18T09:34:14.897Z,7.90
2019-04-18T09:35:16.176Z,9.10
2019-04-18T09:36:15.144Z,9.50
2019-04-18T09:37:14.846Z,8.60
2019-04-18T09:38:14.837Z,8.70
2019-04-18T09:39:14.811Z,8.90
2019-04-18T09:40:16.650Z,9.10
2019-04-18T09:41:14.778Z,10.20
2019-04-18T09:42:14.763Z,8.60
2019-04-18T09:43:24.438Z,8.40
2019-04-18T09:44:17.505Z,8.90
2019-04-18T09:45:27.820Z,8.90
2019-04-18T09:46:15.044Z,7.70
2019-04-18T09:47:18.125Z,7.80
2019-04-18T09:48:14.659Z,8.20
2019-04-18T09:49:14.641Z,7.30
2019-04-18T09:50:15.217Z,9.00
2019-04-18T09:51:14.620Z,8.80
2019-04-18T09:52:14.601Z,8.30
2019-04-18T09:53:14.580Z,8.50
2019-04-18T09:54:14.560Z,8.60
2019-04-18T09:55:14.541Z,8.90
2019-04-18T09:56:14.523Z,7.90
2019-04-18T09:57:14.941Z,8.90
2019-04-18T09:58:14.489Z,9.20
2019-04-18T09:59:14.486Z,8.90
2019-04-18T10:00:14.748Z,7.60
2019-04-18T10:01:14.545Z,8.90
2019-04-18T10:02:14.430Z,8.00
2019-04-18T10:03:14.919Z,8.40
2019-04-18T10:04:14.429Z,8.20
2019-04-18T10:05:23.629Z,8.00
2019-04-18T10:06:14.356Z,7.90
2019-04-18T10:07:14.337Z,7.70
2019-04-18T10:08:14.320Z,9.70
2019-04-18T10:09:14.322Z,8.50
2019-04-18T10:10:14.288Z,8.80
2019-04-18T10:11:17.857Z,8.70
2019-04-18T10:12:14.254Z,9.00
2019-04-18T10:13:14.431Z,9.10
2019-04-18T10:14:14.223Z,9.50
2019-04-18T10:15:17.259Z,8.50
2019-04-18T10:16:17.834Z,8.40
2019-04-18T10:17:16.980Z,8.30
2019-04-18T10:18:14.158Z,8.90
2019-04-18T10:19:14.142Z,8.70
2019-04-18T10:20:14.125Z,9.20
2019-04-18T10:21:17.242Z,8.90
2019-04-18T10:22:14.087Z,8.60
2019-04-18T10:23:14.082Z,8.50
2019-04-18T10:24:14.340Z,8.60
2019-04-18T10:25:14.040Z,8.40
2019-04-18T10:26:14.057Z,8.10
2019-04-18T10:27:14.008Z,9.20
2019-04-18T10:28:14.330Z,9.90
2019-04-18T10:29:14.263Z,8.70
2019-04-18T10:30:27.119Z,9.30
2019-04-18T10:31:13.945Z,8.60
2019-04-18T10:32:14.022Z,8.70
2019-04-18T10:33:13.917Z,8.80
2019-04-18T10:34:15.529Z,8.40
2019-04-18T10:35:13.868Z,9.00
2019-04-18T10:36:13.857Z,8.70
2019-04-18T10:37:13.840Z,9.10
2019-04-18T10:38:14.186Z,9.00
2019-04-18T10:39:13.803Z,9.40
2019-04-18T10:40:13.786Z,9.30
2019-04-18T10:41:13.772Z,8.60
2019-04-18T10:42:13.768Z,9.30
2019-04-18T10:43:13.744Z,9.20
2019-04-18T10:44:13.722Z,8.50
2019-04-18T10:45:13.712Z,9.40
2019-04-18T10:46:17.208Z,9.90
2019-04-18T10:47:13.673Z,9.90
2019-04-18T10:48:13.669Z,9.60
2019-04-18T10:49:13.639Z,9.20
2019-04-18T10:50:13.757Z,9.90
2019-04-18T10:51:14.169Z,9.40
2019-04-18T10:52:14.060Z,9.20
2019-04-18T10:53:13.571Z,9.40
2019-04-18T10:54:13.575Z,8.60
2019-04-18T10:55:13.543Z,9.00
2019-04-18T10:56:13.935Z,9.10
2019-04-18T10:57:13.517Z,9.40
2019-04-18T10:58:13.493Z,10.40
2019-04-18T10:59:13.981Z,9.40
2019-04-18T11:00:13.464Z,8.40
2019-04-18T11:01:14.702Z,9.50
2019-04-18T11:02:13.663Z,9.20
2019-04-18T11:03:13.985Z,8.60
2019-04-18T11:04:19.400Z,8.60
2019-04-18T11:05:13.380Z,8.80
2019-04-18T11:06:20.531Z,9.00
2019-04-18T11:07:13.341Z,8.80
2019-04-18T11:08:13.328Z,8.60
2019-04-18T11:09:13.307Z,8.60
2019-04-18T11:10:13.923Z,9.30
2019-04-18T11:11:13.731Z,8.80
2019-04-18T11:12:13.258Z,9.20
2019-04-18T11:13:13.248Z,9.10
2019-04-18T11:14:13.227Z,8.20
2019-04-18T11:15:13.211Z,9.30
2019-04-18T11:16:13.461Z,8.60
2019-04-18T11:17:13.180Z,8.40
2019-04-18T11:18:13.162Z,8.60
2019-04-18T11:19:13.161Z,8.10
2019-04-18T11:20:13.212Z,9.00
2019-04-18T11:21:13.288Z,8.00
2019-04-18T11:22:13.098Z,8.50
2019-04-18T11:23:13.080Z,8.00
2019-04-18T11:24:13.067Z,8.00
2019-04-18T11:25:13.053Z,7.70
2019-04-18T11:26:13.039Z,8.00
2019-04-18T11:27:13.014Z,8.20
2019-04-18T11:28:12.999Z,8.60
2019-04-18T11:29:12.983Z,8.20
2019-04-18T11:30:12.976Z,7.60
2019-04-18T11:31:12.962Z,7.20
2019-04-18T11:32:13.014Z,7.20
2019-04-18T11:33:12.921Z,7.20
2019-04-18T11:34:13.440Z,7.10
2019-04-18T11:35:12.886Z,7.50
2019-04-18T11:36:12.874Z,7.60
2019-04-18T11:37:13.082Z,7.10
2019-04-18T11:38:12.969Z,6.60
2019-04-18T11:39:12.821Z,7.20
2019-04-18T11:40:12.806Z,6.80
2019-04-18T11:41:12.816Z,7.10
2019-04-18T11:42:12.776Z,6.90
2019-04-18T11:43:13.261Z,7.70
2019-04-18T11:44:12.743Z,8.00
2019-04-18T11:45:12.735Z,7.30
2019-04-18T11:46:12.710Z,7.80
2019-04-18T11:47:13.315Z,7.00
2019-04-18T11:48:12.737Z,7.40
2019-04-18T11:49:13.068Z,8.00
2019-04-18T11:50:13.065Z,8.10
2019-04-18T11:51:12.628Z,7.40
2019-04-18T11:52:12.611Z,7.10
2019-04-18T11:53:12.707Z,7.30
2019-04-18T11:54:12.585Z,7.30
2019-04-18T11:55:12.567Z,7.70
2019-04-18T11:56:14.419Z,8.10
2019-04-18T11:57:12.532Z,8.90
2019-04-18T11:58:12.604Z,8.00
2019-04-18T11:59:13.172Z,8.60
2019-04-18T12:00:13.486Z,8.90
2019-04-18T12:01:19.351Z,9.10
2019-04-18T12:02:12.447Z,10.20
2019-04-18T12:03:12.429Z,10.30
2019-04-18T12:04:12.415Z,8.90
2019-04-18T12:05:12.404Z,10.90
2019-04-18T12:06:12.384Z,9.70
2019-04-18T12:07:12.377Z,8.80
2019-04-18T12:08:12.356Z,10.00
2019-04-18T12:09:12.338Z,9.70
2019-04-18T12:10:12.843Z,9.80
2019-04-18T12:11:12.735Z,9.80
2019-04-18T12:12:12.591Z,9.90
2019-04-18T12:13:12.639Z,9.40
2019-04-18T12:14:12.588Z,8.90
2019-04-18T12:15:12.239Z,8.70
2019-04-18T12:16:12.821Z,8.80
2019-04-18T12:17:12.638Z,8.10
2019-04-18T12:18:14.024Z,8.40
2019-04-18T12:19:12.172Z,8.50
2019-04-18T12:20:12.159Z,8.10
2019-04-18T12:21:12.340Z,9.00
2019-04-18T12:22:12.126Z,9.30
2019-04-18T12:23:12.125Z,7.60
2019-04-18T12:24:12.713Z,7.60
2019-04-18T12:25:16.216Z,7.50
2019-04-18T12:26:12.417Z,7.90
2019-04-18T12:27:12.402Z,7.80
2019-04-18T12:28:12.033Z,7.40
2019-04-18T12:29:12.514Z,7.50
2019-04-18T12:30:11.994Z,7.60
2019-04-18T12:31:11.986Z,7.30
2019-04-18T12:32:11.960Z,8.00
2019-04-18T12:33:11.946Z,7.70
2019-04-18T12:34:22.026Z,7.50
2019-04-18T12:35:11.925Z,8.10
2019-04-18T12:36:12.279Z,8.10
2019-04-18T12:37:12.049Z,7.20
2019-04-18T12:38:11.873Z,8.20
2019-04-18T12:39:12.107Z,8.10
2019-04-18T12:40:12.458Z,8.50
2019-04-18T12:41:13.211Z,8.80
2019-04-18T12:42:11.801Z,8.60
2019-04-18T12:43:11.787Z,8.60
2019-04-18T12:44:11.772Z,8.30
2019-04-18T12:45:13.221Z,8.70
2019-04-18T12:46:11.741Z,9.40
2019-04-18T12:47:11.726Z,9.70
2019-04-18T12:48:12.402Z,8.90
2019-04-18T12:49:11.697Z,10.20
2019-04-18T12:50:11.677Z,9.70
2019-04-18T12:51:11.671Z,9.60
2019-04-18T12:52:15.245Z,8.90
2019-04-18T12:53:11.632Z,8.40
2019-04-18T12:54:11.611Z,9.00
2019-04-18T12:55:11.595Z,8.60
2019-04-18T12:56:11.669Z,9.40
2019-04-18T12:57:11.562Z,9.60
2019-04-18T12:58:13.004Z,8.90
2019-04-18T12:59:12.046Z,9.10
2019-04-18T13:00:11.520Z,9.30
2019-04-18T13:01:11.509Z,7.90
2019-04-18T13:02:11.484Z,8.60
2019-04-18T13:03:11.472Z,7.90
2019-04-18T13:04:11.777Z,8.20
2019-04-18T13:05:11.652Z,8.60